createdAt,value
2022-11-09T00:01:21.905Z,9.15
2022-11-09T00:06:24.821Z,9.14
2022-11-09T00:11:26.569Z,9.33
2022-11-09T00:16:28.306Z,9.26
2022-11-09T00:21:29.987Z,9.24
2022-11-09T00:26:31.760Z,9.22
2022-11-09T00:31:34.300Z,9.23
2022-11-09T00:36:35.973Z,9.07
2022-11-09T00:41:37.678Z,8.98
2022-11-09T00:46:39.416Z,9.07
2022-11-09T00:51:41.260Z,8.90
2022-11-09T00:56:43.346Z,8.96
2022-11-09T01:01:45.785Z,8.82
2022-11-09T01:06:47.516Z,8.67
2022-11-09T01:11:49.336Z,8.74
2022-11-09T01:16:51.495Z,8.42
2022-11-09T01:21:53.372Z,8.56
2022-11-09T01:26:55.823Z,8.79
2022-11-09T01:31:57.480Z,8.85
2022-11-09T01:36:59.776Z,8.63
2022-11-09T01:42:04.439Z,8.95
2022-11-09T01:47:14.880Z,8.92
2022-11-09T01:52:25.856Z,9.13
2022-11-09T01:57:40.019Z,9.10
2022-11-09T02:02:47.953Z,9.01
2022-11-09T02:07:51.954Z,9.22
2022-11-09T02:12:58.440Z,9.10
2022-11-09T02:18:00.491Z,9.25
2022-11-09T02:23:02.367Z,9.27
2022-11-09T02:28:04.913Z,9.10
2022-11-09T02:33:06.701Z,9.31
2022-11-09T02:38:13.676Z,9.24
2022-11-09T02:43:16.510Z,9.37
2022-11-09T02:48:19.595Z,9.15
2022-11-09T02:53:21.753Z,9.26
2022-11-09T02:58:23.679Z,9.38
2022-11-09T03:03:25.464Z,9.22
2022-11-09T03:08:27.253Z,8.72
2022-11-09T03:13:29.311Z,8.82
2022-11-09T03:18:31.487Z,8.74
2022-11-09T03:23:33.938Z,8.67
2022-11-09T03:28:37.023Z,8.76
2022-11-09T03:33:39.199Z,8.70
2022-11-09T03:38:41.396Z,8.65
2022-11-09T03:43:43.240Z,8.44
2022-11-09T03:48:44.897Z,8.45
2022-11-09T03:53:46.587Z,8.33
2022-11-09T03:58:48.893Z,8.35
2022-11-09T04:03:50.578Z,8.13
2022-11-09T04:08:52.278Z,8.12
2022-11-09T04:13:54.137Z,8.28
2022-11-09T04:18:55.835Z,8.33
2022-11-09T04:23:57.578Z,8.40
2022-11-09T04:28:59.248Z,8.29
2022-11-09T04:34:00.975Z,8.33
2022-11-09T04:39:02.674Z,8.35
2022-11-09T04:44:04.648Z,8.62
2022-11-09T04:49:06.445Z,8.75
2022-11-09T04:54:08.128Z,8.78
2022-11-09T04:59:09.927Z,8.78
2022-11-09T05:04:11.745Z,8.83
2022-11-09T05:09:13.481Z,8.73
2022-11-09T05:14:15.252Z,8.55
2022-11-09T05:19:16.994Z,8.69
2022-11-09T05:24:18.664Z,8.77
2022-11-09T05:29:20.336Z,8.95
2022-11-09T05:34:22.004Z,8.74
2022-11-09T05:39:23.663Z,9.05
2022-11-09T05:44:25.757Z,9.12
2022-11-09T05:49:27.477Z,9.17
2022-11-09T05:54:29.147Z,9.30
2022-11-09T05:59:30.836Z,9.38
2022-11-09T06:04:32.516Z,9.53
2022-11-09T06:09:34.205Z,9.53
2022-11-09T06:14:35.880Z,9.61
2022-11-09T06:19:37.572Z,9.55
2022-11-09T06:24:39.302Z,9.71
2022-11-09T06:29:40.995Z,9.84
2022-11-09T06:34:44.373Z,9.72
2022-11-09T06:39:47.647Z,9.62
2022-11-09T06:44:49.351Z,9.69
2022-11-09T06:49:51.071Z,9.73
2022-11-09T06:54:52.763Z,9.86
2022-11-09T06:59:54.449Z,9.97
2022-11-09T07:04:56.330Z,10.04
2022-11-09T07:09:58.319Z,10.05
2022-11-09T07:15:00.238Z,10.21
2022-11-09T07:20:02.043Z,10.23
2022-11-09T07:25:04.069Z,10.51
2022-11-09T07:30:06.624Z,10.95
2022-11-09T07:35:09.947Z,11.15
2022-11-09T07:40:12.499Z,10.78
2022-11-09T07:45:14.389Z,11.11
2022-11-09T07:50:16.316Z,11.07
2022-11-09T07:55:18.671Z,11.23
2022-11-09T08:00:23.641Z,11.10
2022-11-09T08:05:26.412Z,11.30
2022-11-09T08:10:29.545Z,11.16
2022-11-09T08:15:31.844Z,11.22
2022-11-09T08:20:34.405Z,11.08
2022-11-09T08:25:36.443Z,11.32
2022-11-09T08:30:38.133Z,11.42
2022-11-09T08:35:39.928Z,11.83
2022-11-09T08:40:41.608Z,12.04
2022-11-09T08:45:43.285Z,12.39
2022-11-09T08:50:44.981Z,12.80
2022-11-09T08:55:49.522Z,13.37
2022-11-09T09:00:51.703Z,13.50
2022-11-09T09:05:53.377Z,13.56
2022-11-09T09:10:55.057Z,13.47
2022-11-09T09:15:56.914Z,13.28
2022-11-09T09:20:58.616Z,13.26
2022-11-09T09:26:00.408Z,13.16
2022-11-09T09:31:02.463Z,13.32
2022-11-09T09:36:04.848Z,13.00
2022-11-09T09:41:07.874Z,12.93
2022-11-09T09:46:24.908Z,12.71
2022-11-09T09:51:42.786Z,12.75
2022-11-09T09:56:46.929Z,12.75
2022-11-09T10:01:50.926Z,12.83
2022-11-09T10:07:02.269Z,12.63
2022-11-09T10:12:12.258Z,12.87
2022-11-09T10:17:37.319Z,12.99
2022-11-09T10:22:41.713Z,12.97
2022-11-09T10:27:53.827Z,12.98
2022-11-09T10:33:11.950Z,13.00
2022-11-09T10:38:21.207Z,12.78
2022-11-09T10:43:41.886Z,12.49
2022-11-09T10:49:20.017Z,12.55
2022-11-09T10:54:40.301Z,12.77
2022-11-09T11:00:01.073Z,13.07
2022-11-09T11:05:25.708Z,13.22
2022-11-09T11:10:46.126Z,13.22
2022-11-09T11:16:18.671Z,13.31
2022-11-09T11:21:38.567Z,13.41
2022-11-09T11:27:10.528Z,13.21
2022-11-09T11:32:31.408Z,13.71
2022-11-09T11:38:27.742Z,13.89
2022-11-09T11:43:53.965Z,13.60
2022-11-09T11:49:17.514Z,14.01
2022-11-09T11:54:57.130Z,14.82
2022-11-09T12:00:20.174Z,16.10
2022-11-09T12:05:46.501Z,17.09
2022-11-09T12:11:12.808Z,16.67
2022-11-09T12:16:42.046Z,16.07
2022-11-09T12:22:13.315Z,15.00
2022-11-09T12:27:51.153Z,15.78
2022-11-09T12:33:23.964Z,15.49
2022-11-09T12:39:05.572Z,15.42
2022-11-09T12:44:30.460Z,15.39
2022-11-09T12:49:51.135Z,14.87
2022-11-09T12:55:15.645Z,14.73
2022-11-09T13:00:35.822Z,15.96
2022-11-09T13:06:16.824Z,16.72
2022-11-09T13:11:43.975Z,16.84
2022-11-09T13:17:23.694Z,16.70
2022-11-09T13:22:44.136Z,16.29
2022-11-09T13:28:24.353Z,15.47
2022-11-09T13:33:44.960Z,15.26
2022-11-09T13:39:29.698Z,15.27
2022-11-09T13:44:50.174Z,15.77
2022-11-09T13:50:39.448Z,16.55
2022-11-09T13:56:22.486Z,15.83
2022-11-09T14:01:59.791Z,14.95
2022-11-09T14:07:24.693Z,14.87
2022-11-09T14:13:03.879Z,15.26
2022-11-09T14:18:41.047Z,15.41
2022-11-09T14:24:19.163Z,15.05
2022-11-09T14:29:54.531Z,14.75
2022-11-09T14:35:25.863Z,14.81
2022-11-09T14:40:48.323Z,14.74
2022-11-09T14:46:18.400Z,14.77
2022-11-09T14:51:40.394Z,14.29
2022-11-09T14:57:01.077Z,14.21
2022-11-09T15:02:23.615Z,13.80
2022-11-09T15:07:48.240Z,13.17
2022-11-09T15:13:08.685Z,12.70
2022-11-09T15:18:34.381Z,12.19
2022-11-09T15:24:09.717Z,11.72
2022-11-09T15:29:40.938Z,11.57
2022-11-09T15:35:01.299Z,11.42
2022-11-09T15:40:25.006Z,10.87
2022-11-09T15:45:45.062Z,10.72
2022-11-09T15:51:05.413Z,10.59
2022-11-09T15:56:25.811Z,10.45
2022-11-09T16:01:46.074Z,10.24
2022-11-09T16:07:07.431Z,10.25
2022-11-09T16:12:27.563Z,10.15
2022-11-09T16:17:50.315Z,10.09
2022-11-09T16:23:10.305Z,10.30
2022-11-09T16:28:30.736Z,10.17
2022-11-09T16:33:50.896Z,10.26
2022-11-09T16:39:17.237Z,10.14
2022-11-09T16:44:41.559Z,10.14
2022-11-09T16:50:01.487Z,10.07
2022-11-09T16:55:21.830Z,10.22
2022-11-09T17:06:27.251Z,10.08
2022-11-09T17:11:47.627Z,9.88
2022-11-09T17:17:07.878Z,10.06
2022-11-09T17:22:28.173Z,10.01
2022-11-09T17:27:48.424Z,10.04
2022-11-09T17:33:08.612Z,10.12
2022-11-09T17:38:30.124Z,9.98
2022-11-09T17:43:50.589Z,9.90
2022-11-09T17:49:10.990Z,9.92
2022-11-09T17:54:36.476Z,10.02
2022-11-09T17:59:57.383Z,9.96
2022-11-09T18:05:17.479Z,9.96
2022-11-09T18:10:39.363Z,9.97
2022-11-09T18:16:09.459Z,10.00
2022-11-09T18:21:33.567Z,9.80
2022-11-09T18:26:54.123Z,9.99
2022-11-09T18:32:14.420Z,9.94
2022-11-09T18:37:38.319Z,10.12
2022-11-09T18:43:00.356Z,9.91
2022-11-09T18:48:20.728Z,10.16
2022-11-09T18:53:43.074Z,10.08
2022-11-09T18:59:03.186Z,9.87
2022-11-09T19:04:23.519Z,9.83
2022-11-09T19:09:43.980Z,9.88
2022-11-09T19:15:04.608Z,9.83
2022-11-09T19:20:24.564Z,10.02
2022-11-09T19:25:44.943Z,10.21
2022-11-09T19:31:05.233Z,10.23
2022-11-09T19:36:30.630Z,10.14
2022-11-09T19:41:51.754Z,10.02
2022-11-09T19:47:12.312Z,10.00
2022-11-09T19:52:32.679Z,9.88
2022-11-09T19:57:52.802Z,9.97
2022-11-09T20:03:12.918Z,10.01
2022-11-09T20:08:37.655Z,10.12
2022-11-09T20:13:57.656Z,10.13
2022-11-09T20:19:17.860Z,10.05
2022-11-09T20:24:38.322Z,10.09
2022-11-09T20:29:58.619Z,10.06
2022-11-09T20:35:18.925Z,10.41
2022-11-09T20:40:39.136Z,10.68
2022-11-09T20:46:04.388Z,10.81
2022-11-09T20:51:24.606Z,11.01
2022-11-09T20:56:45.595Z,10.95
2022-11-09T21:02:05.831Z,11.42
2022-11-09T21:07:26.120Z,11.72
2022-11-09T21:12:46.262Z,11.89
2022-11-09T21:18:07.566Z,11.94
2022-11-09T21:23:27.601Z,11.94
2022-11-09T21:29:06.443Z,12.02
2022-11-09T21:34:31.472Z,12.12
2022-11-09T21:39:54.587Z,12.04
2022-11-09T21:45:14.923Z,11.91
2022-11-09T21:50:35.221Z,12.08
2022-11-09T21:55:55.413Z,12.11
2022-11-09T22:01:18.099Z,11.99
2022-11-09T22:06:40.533Z,12.13
2022-11-09T22:12:19.593Z,12.19
2022-11-09T22:17:39.558Z,12.20
2022-11-09T22:22:59.751Z,12.35
2022-11-09T22:28:20.099Z,12.34
2022-11-09T22:33:40.450Z,12.34
2022-11-09T22:39:00.950Z,12.20
2022-11-09T22:44:21.146Z,12.31
2022-11-09T22:49:41.450Z,12.09
2022-11-09T22:55:01.703Z,12.07
2022-11-09T23:00:22.170Z,12.13
2022-11-09T23:05:42.114Z,12.11
2022-11-09T23:11:02.416Z,12.05
2022-11-09T23:16:23.518Z,11.97
2022-11-09T23:21:43.703Z,12.03
2022-11-09T23:27:03.901Z,11.99
2022-11-09T23:32:24.195Z,12.06
2022-11-09T23:37:44.429Z,12.07
2022-11-09T23:43:07.791Z,12.06
2022-11-09T23:48:28.124Z,12.06
2022-11-09T23:53:48.416Z,12.02
2022-11-09T23:59:08.588Z,11.95
